sensor_id;sensor_type;location;lat;lon;timestamp;pressure;altitude;pressure_sealevel;temperature;humidity
53262;BME280;39658;51.090;-1.786;2022-11-06T00:00:45;100193.41;;;12.83;100.00
53262;BME280;39658;51.090;-1.786;2022-11-06T00:03:12;100202.94;;;12.78;100.00
53262;BME280;39658;51.090;-1.786;2022-11-06T00:05:40;100189.97;;;12.75;100.00
53262;BME280;39658;51.090;-1.786;2022-11-06T00:08:29;100195.31;;;12.75;100.00
53262;BME280;39658;51.090;-1.786;2022-11-06T00:10:57;100188.94;;;12.76;100.00
53262;BME280;39658;51.090;-1.786;2022-11-06T00:13:24;100191.44;;;12.77;100.00
53262;BME280;39658;51.090;-1.786;2022-11-06T00:15:51;100190.78;;;12.75;100.00
53262;BME280;39658;51.090;-1.786;2022-11-06T00:18:18;100178.09;;;12.77;100.00
53262;BME280;39658;51.090;-1.786;2022-11-06T00:20:45;100176.78;;;12.73;100.00
53262;BME280;39658;51.090;-1.786;2022-11-06T00:23:12;100176.59;;;12.75;100.00
53262;BME280;39658;51.090;-1.786;2022-11-06T00:25:41;100183.59;;;12.76;100.00
53262;BME280;39658;51.090;-1.786;2022-11-06T00:28:07;100174.59;;;12.77;100.00
53262;BME280;39658;51.090;-1.786;2022-11-06T00:30:34;100172.28;;;12.74;100.00
53262;BME280;39658;51.090;-1.786;2022-11-06T00:33:01;100170.63;;;12.73;100.00
53262;BME280;39658;51.090;-1.786;2022-11-06T00:35:28;100162.16;;;12.69;100.00
53262;BME280;39658;51.090;-1.786;2022-11-06T00:37:55;100176.34;;;12.70;100.00
53262;BME280;39658;51.090;-1.786;2022-11-06T00:40:22;100165.84;;;12.68;100.00
53262;BME280;39658;51.090;-1.786;2022-11-06T00:42:54;100165.66;;;12.70;100.00
53262;BME280;39658;51.090;-1.786;2022-11-06T00:45:22;100158.00;;;12.67;100.00
53262;BME280;39658;51.090;-1.786;2022-11-06T00:47:48;100148.44;;;12.58;100.00
53262;BME280;39658;51.090;-1.786;2022-11-06T00:50:15;100150.63;;;12.54;100.00
53262;BME280;39658;51.090;-1.786;2022-11-06T00:52:43;100149.34;;;12.50;100.00
53262;BME280;39658;51.090;-1.786;2022-11-06T00:55:10;100145.00;;;12.49;100.00
53262;BME280;39658;51.090;-1.786;2022-11-06T00:57:36;100143.34;;;12.48;100.00
53262;BME280;39658;51.090;-1.786;2022-11-06T01:00:06;100140.41;;;12.43;100.00
53262;BME280;39658;51.090;-1.786;2022-11-06T01:02:33;100144.91;;;12.42;100.00
53262;BME280;39658;51.090;-1.786;2022-11-06T01:05:00;100130.75;;;12.42;100.00
53262;BME280;39658;51.090;-1.786;2022-11-06T01:07:27;100135.25;;;12.41;100.00
53262;BME280;39658;51.090;-1.786;2022-11-06T01:09:53;100121.91;;;12.41;100.00
53262;BME280;39658;51.090;-1.786;2022-11-06T01:12:20;100125.22;;;12.43;100.00
53262;BME280;39658;51.090;-1.786;2022-11-06T01:14:47;100121.22;;;12.39;100.00
53262;BME280;39658;51.090;-1.786;2022-11-06T01:17:15;100119.56;;;12.38;100.00
53262;BME280;39658;51.090;-1.786;2022-11-06T01:19:42;100123.06;;;12.39;100.00
53262;BME280;39658;51.090;-1.786;2022-11-06T01:22:09;100127.25;;;12.41;100.00
53262;BME280;39658;51.090;-1.786;2022-11-06T01:24:35;100126.75;;;12.38;100.00
53262;BME280;39658;51.090;-1.786;2022-11-06T01:27:02;100119.56;;;12.38;100.00
53262;BME280;39658;51.090;-1.786;2022-11-06T01:29:29;100109.63;;;12.32;100.00
53262;BME280;39658;51.090;-1.786;2022-11-06T01:31:56;100110.81;;;12.30;100.00
53262;BME280;39658;51.090;-1.786;2022-11-06T01:34:24;100109.44;;;12.34;100.00
53262;BME280;39658;51.090;-1.786;2022-11-06T01:36:51;100103.00;;;12.28;100.00
53262;BME280;39658;51.090;-1.786;2022-11-06T01:39:18;100092.50;;;12.27;100.00
53262;BME280;39658;51.090;-1.786;2022-11-06T01:41:47;100090.38;;;12.22;100.00
53262;BME280;39658;51.090;-1.786;2022-11-06T01:47:20;100092.56;;;12.18;100.00
53262;BME280;39658;51.090;-1.786;2022-11-06T01:49:50;100083.94;;;12.16;100.00
53262;BME280;39658;51.090;-1.786;2022-11-06T01:52:19;100091.94;;;12.16;100.00
53262;BME280;39658;51.090;-1.786;2022-11-06T01:54:50;100082.63;;;12.12;100.00
53262;BME280;39658;51.090;-1.786;2022-11-06T01:57:18;100080.16;;;12.11;100.00
53262;BME280;39658;51.090;-1.786;2022-11-06T01:59:45;100082.09;;;12.17;100.00
53262;BME280;39658;51.090;-1.786;2022-11-06T02:02:13;100084.28;;;12.13;100.00
53262;BME280;39658;51.090;-1.786;2022-11-06T02:04:43;100082.81;;;12.11;100.00
53262;BME280;39658;51.090;-1.786;2022-11-06T02:07:14;100079.69;;;12.07;100.00
53262;BME280;39658;51.090;-1.786;2022-11-06T02:09:42;100078.03;;;12.06;100.00
53262;BME280;39658;51.090;-1.786;2022-11-06T02:12:15;100073.53;;;12.07;100.00
53262;BME280;39658;51.090;-1.786;2022-11-06T02:14:53;100066.91;;;12.17;100.00
53262;BME280;39658;51.090;-1.786;2022-11-06T02:17:33;100064.44;;;12.16;100.00
53262;BME280;39658;51.090;-1.786;2022-11-06T02:20:06;100070.84;;;12.07;100.00
53262;BME280;39658;51.090;-1.786;2022-11-06T02:23:01;100066.72;;;12.04;100.00
53262;BME280;39658;51.090;-1.786;2022-11-06T02:25:40;100062.22;;;12.05;100.00
53262;BME280;39658;51.090;-1.786;2022-11-06T02:28:17;100066.34;;;12.07;100.00
53262;BME280;39658;51.090;-1.786;2022-11-06T02:30:46;100062.84;;;12.07;100.00
53262;BME280;39658;51.090;-1.786;2022-11-06T02:33:15;100061.75;;;12.01;100.00
53262;BME280;39658;51.090;-1.786;2022-11-06T02:35:47;100054.66;;;12.08;100.00
53262;BME280;39658;51.090;-1.786;2022-11-06T02:38:19;100052.75;;;12.17;100.00
53262;BME280;39658;51.090;-1.786;2022-11-06T02:40:50;100045.00;;;12.07;100.00
53262;BME280;39658;51.090;-1.786;2022-11-06T02:43:21;100051.34;;;12.06;100.00
53262;BME280;39658;51.090;-1.786;2022-11-06T02:45:52;100040.41;;;12.01;100.00
53262;BME280;39658;51.090;-1.786;2022-11-06T02:48:23;100043.91;;;12.02;100.00
53262;BME280;39658;51.090;-1.786;2022-11-06T02:50:53;100034.72;;;12.04;100.00
53262;BME280;39658;51.090;-1.786;2022-11-06T02:53:23;100025.63;;;12.13;100.00
53262;BME280;39658;51.090;-1.786;2022-11-06T02:55:53;100032.69;;;12.06;100.00
53262;BME280;39658;51.090;-1.786;2022-11-06T02:58:27;100032.31;;;12.09;100.00
53262;BME280;39658;51.090;-1.786;2022-11-06T03:01:01;100036.28;;;12.13;100.00
53262;BME280;39658;51.090;-1.786;2022-11-06T03:03:31;100032.97;;;12.11;100.00
53262;BME280;39658;51.090;-1.786;2022-11-06T03:06:01;100016.88;;;12.05;100.00
53262;BME280;39658;51.090;-1.786;2022-11-06T03:08:32;100010.72;;;12.04;100.00
53262;BME280;39658;51.090;-1.786;2022-11-06T03:11:12;100002.72;;;12.04;100.00
53262;BME280;39658;51.090;-1.786;2022-11-06T03:13:49;99997.19;;;12.06;100.00
53262;BME280;39658;51.090;-1.786;2022-11-06T03:16:25;99995.34;;;12.06;100.00
53262;BME280;39658;51.090;-1.786;2022-11-06T03:18:58;99989.66;;;12.09;100.00
53262;BME280;39658;51.090;-1.786;2022-11-06T03:21:31;99980.28;;;12.13;100.00
53262;BME280;39658;51.090;-1.786;2022-11-06T03:24:05;99981.09;;;12.14;100.00
53262;BME280;39658;51.090;-1.786;2022-11-06T03:26:39;99971.63;;;12.11;100.00
53262;BME280;39658;51.090;-1.786;2022-11-06T03:29:13;99979.34;;;12.21;100.00
53262;BME280;39658;51.090;-1.786;2022-11-06T03:31:46;99976.88;;;12.19;100.00
53262;BME280;39658;51.090;-1.786;2022-11-06T03:34:19;99965.38;;;12.19;100.00
53262;BME280;39658;51.090;-1.786;2022-11-06T03:36:53;99967.03;;;12.20;100.00
53262;BME280;39658;51.090;-1.786;2022-11-06T03:39:26;99977.78;;;12.27;100.00
53262;BME280;39658;51.090;-1.786;2022-11-06T03:41:59;99972.72;;;12.17;100.00
53262;BME280;39658;51.090;-1.786;2022-11-06T03:44:31;99961.25;;;12.16;100.00
53262;BME280;39658;51.090;-1.786;2022-11-06T03:47:04;99955.91;;;12.16;100.00
53262;BME280;39658;51.090;-1.786;2022-11-06T03:49:37;99954.63;;;12.12;100.00
53262;BME280;39658;51.090;-1.786;2022-11-06T03:52:10;99958.94;;;12.13;100.00
53262;BME280;39658;51.090;-1.786;2022-11-06T03:54:42;99963.63;;;12.11;100.00
53262;BME280;39658;51.090;-1.786;2022-11-06T03:57:12;99953.06;;;12.18;100.00
53262;BME280;39658;51.090;-1.786;2022-11-06T03:59:46;99942.28;;;12.11;100.00
53262;BME280;39658;51.090;-1.786;2022-11-06T04:02:14;99935.22;;;12.18;100.00
53262;BME280;39658;51.090;-1.786;2022-11-06T04:04:46;99933.81;;;12.22;100.00
53262;BME280;39658;51.090;-1.786;2022-11-06T04:07:19;99934.47;;;12.10;100.00
53262;BME280;39658;51.090;-1.786;2022-11-06T04:09:51;99925.75;;;12.01;100.00
53262;BME280;39658;51.090;-1.786;2022-11-06T04:12:37;99921.38;;;12.00;100.00
53262;BME280;39658;51.090;-1.786;2022-11-06T04:15:24;99911.91;;;11.98;100.00
53262;BME280;39658;51.090;-1.786;2022-11-06T04:17:51;99911.66;;;12.07;100.00
53262;BME280;39658;51.090;-1.786;2022-11-06T04:20:19;99905.78;;;12.12;100.00
53262;BME280;39658;51.090;-1.786;2022-11-06T04:23:11;99901.09;;;12.14;100.00
53262;BME280;39658;51.090;-1.786;2022-11-06T04:25:49;99904.13;;;12.11;100.00
53262;BME280;39658;51.090;-1.786;2022-11-06T04:28:50;99911.13;;;12.12;100.00
53262;BME280;39658;51.090;-1.786;2022-11-06T04:31:27;99889.41;;;12.15;100.00
53262;BME280;39658;51.090;-1.786;2022-11-06T04:34:02;99888.03;;;12.19;100.00
53262;BME280;39658;51.090;-1.786;2022-11-06T04:36:36;99890.59;;;12.12;100.00
53262;BME280;39658;51.090;-1.786;2022-11-06T04:39:13;99883.63;;;12.11;100.00
53262;BME280;39658;51.090;-1.786;2022-11-06T04:41:48;99883.63;;;12.11;100.00
53262;BME280;39658;51.090;-1.786;2022-11-06T04:44:22;99887.94;;;12.12;100.00
53262;BME280;39658;51.090;-1.786;2022-11-06T04:46:55;99895.31;;;12.10;100.00
53262;BME280;39658;51.090;-1.786;2022-11-06T04:49:24;99903.66;;;12.07;100.00
53262;BME280;39658;51.090;-1.786;2022-11-06T04:51:53;99924.44;;;12.12;100.00
53262;BME280;39658;51.090;-1.786;2022-11-06T04:54:20;99908.44;;;12.12;100.00
53262;BME280;39658;51.090;-1.786;2022-11-06T04:56:47;99891.16;;;12.08;100.00
53262;BME280;39658;51.090;-1.786;2022-11-06T04:59:15;99881.13;;;12.10;100.00
53262;BME280;39658;51.090;-1.786;2022-11-06T05:01:43;99874.16;;;12.09;100.00
53262;BME280;39658;51.090;-1.786;2022-11-06T05:04:12;99866.97;;;12.09;100.00
53262;BME280;39658;51.090;-1.786;2022-11-06T05:06:39;99863.50;;;12.09;100.00
53262;BME280;39658;51.090;-1.786;2022-11-06T05:09:05;99850.72;;;12.04;100.00
53262;BME280;39658;51.090;-1.786;2022-11-06T05:11:32;99861.75;;;12.01;100.00
53262;BME280;39658;51.090;-1.786;2022-11-06T05:13:59;99860.75;;;12.02;100.00
53262;BME280;39658;51.090;-1.786;2022-11-06T05:16:26;99857.88;;;12.04;100.00
53262;BME280;39658;51.090;-1.786;2022-11-06T05:18:52;99856.03;;;12.04;100.00
53262;BME280;39658;51.090;-1.786;2022-11-06T05:21:21;99859.72;;;12.03;100.00
53262;BME280;39658;51.090;-1.786;2022-11-06T05:24:05;99860.75;;;12.02;100.00
53262;BME280;39658;51.090;-1.786;2022-11-06T05:26:32;99860.56;;;12.04;100.00
53262;BME280;39658;51.090;-1.786;2022-11-06T05:28:59;99858.72;;;12.04;100.00
53262;BME280;39658;51.090;-1.786;2022-11-06T05:31:26;99849.41;;;12.00;100.00
53262;BME280;39658;51.090;-1.786;2022-11-06T05:33:53;99840.22;;;12.03;100.00
53262;BME280;39658;51.090;-1.786;2022-11-06T05:36:21;99845.75;;;12.01;100.00
53262;BME280;39658;51.090;-1.786;2022-11-06T05:38:48;99846.72;;;12.00;100.00
53262;BME280;39658;51.090;-1.786;2022-11-06T05:41:15;99842.41;;;11.99;100.00
53262;BME280;39658;51.090;-1.786;2022-11-06T05:43:42;99842.59;;;11.98;100.00
53262;BME280;39658;51.090;-1.786;2022-11-06T05:46:08;99839.09;;;11.97;100.00
53262;BME280;39658;51.090;-1.786;2022-11-06T05:48:35;99837.44;;;11.96;100.00
53262;BME280;39658;51.090;-1.786;2022-11-06T05:51:04;99841.31;;;11.93;100.00
53262;BME280;39658;51.090;-1.786;2022-11-06T05:53:34;99830.00;;;11.91;100.00
53262;BME280;39658;51.090;-1.786;2022-11-06T05:56:01;99814.00;;;11.91;100.00
53262;BME280;39658;51.090;-1.786;2022-11-06T05:58:29;99817.69;;;11.90;100.00
53262;BME280;39658;51.090;-1.786;2022-11-06T06:00:56;99815.66;;;11.92;100.00
53262;BME280;39658;51.090;-1.786;2022-11-06T06:03:24;99810.72;;;11.89;100.00
53262;BME280;39658;51.090;-1.786;2022-11-06T06:05:51;99810.72;;;11.89;100.00
53262;BME280;39658;51.090;-1.786;2022-11-06T06:08:18;99793.44;;;11.85;100.00
53262;BME280;39658;51.090;-1.786;2022-11-06T06:10:47;99795.91;;;11.87;100.00
53262;BME280;39658;51.090;-1.786;2022-11-06T06:13:14;99779.84;;;11.80;100.00
53262;BME280;39658;51.090;-1.786;2022-11-06T06:15:41;99772.47;;;11.82;100.00
53262;BME280;39658;51.090;-1.786;2022-11-06T06:18:09;99768.53;;;11.78;100.00
53262;BME280;39658;51.090;-1.786;2022-11-06T06:20:36;99767.34;;;11.81;100.00
53262;BME280;39658;51.090;-1.786;2022-11-06T06:23:04;99760.06;;;11.75;100.00
53262;BME280;39658;51.090;-1.786;2022-11-06T06:25:31;99764.28;;;11.69;100.00
53262;BME280;39658;51.090;-1.786;2022-11-06T06:27:59;99762.06;;;11.73;100.00
53262;BME280;39658;51.090;-1.786;2022-11-06T06:30:26;99770.25;;;11.71;100.00
53262;BME280;39658;51.090;-1.786;2022-11-06T06:32:53;99774.94;;;11.69;100.00
53262;BME280;39658;51.090;-1.786;2022-11-06T06:35:19;99775.97;;;11.68;100.00
53262;BME280;39658;51.090;-1.786;2022-11-06T06:37:51;99770.63;;;11.68;100.00
53262;BME280;39658;51.090;-1.786;2022-11-06T06:40:18;99768.34;;;11.65;100.00
53262;BME280;39658;51.090;-1.786;2022-11-06T06:42:45;99777.81;;;11.68;100.00
53262;BME280;39658;51.090;-1.786;2022-11-06T06:45:14;99772.00;;;11.64;100.00
53262;BME280;39658;51.090;-1.786;2022-11-06T06:47:41;99768.53;;;11.64;100.00
53262;BME280;39658;51.090;-1.786;2022-11-06T06:50:08;99765.22;;;11.61;100.00
53262;BME280;39658;51.090;-1.786;2022-11-06T06:52:35;99770.88;;;11.58;100.00
53262;BME280;39658;51.090;-1.786;2022-11-06T06:55:02;99766.19;;;11.60;100.00
53262;BME280;39658;51.090;-1.786;2022-11-06T06:57:29;99766.88;;;11.63;100.00
53262;BME280;39658;51.090;-1.786;2022-11-06T06:59:56;99754.72;;;11.60;100.00
53262;BME280;39658;51.090;-1.786;2022-11-06T07:02:24;99748.56;;;11.59;100.00
53262;BME280;39658;51.090;-1.786;2022-11-06T07:04:51;99725.97;;;11.55;100.00
53262;BME280;39658;51.090;-1.786;2022-11-06T07:07:17;99742.31;;;11.52;100.00
53262;BME280;39658;51.090;-1.786;2022-11-06T07:09:44;99735.72;;;11.48;100.00
53262;BME280;39658;51.090;-1.786;2022-11-06T07:12:11;99735.53;;;11.50;100.00
53262;BME280;39658;51.090;-1.786;2022-11-06T07:14:38;99742.50;;;11.51;100.00
53262;BME280;39658;51.090;-1.786;2022-11-06T07:17:04;99741.69;;;11.50;100.00
53262;BME280;39658;51.090;-1.786;2022-11-06T07:19:32;99738.63;;;11.53;100.00
53262;BME280;39658;51.090;-1.786;2022-11-06T07:21:59;99726.34;;;11.52;100.00
53262;BME280;39658;51.090;-1.786;2022-11-06T07:24:26;99732.03;;;11.49;100.00
53262;BME280;39658;51.090;-1.786;2022-11-06T07:26:53;99727.34;;;11.51;100.00
53262;BME280;39658;51.090;-1.786;2022-11-06T07:29:20;99726.34;;;11.52;100.00
53262;BME280;39658;51.090;-1.786;2022-11-06T07:31:46;99706.22;;;11.50;100.00
53262;BME280;39658;51.090;-1.786;2022-11-06T07:34:13;99716.03;;;11.49;100.00
53262;BME280;39658;51.090;-1.786;2022-11-06T07:36:41;99705.56;;;11.48;100.00
53262;BME280;39658;51.090;-1.786;2022-11-06T07:39:08;99708.25;;;11.48;100.00
53262;BME280;39658;51.090;-1.786;2022-11-06T07:41:36;99703.38;;;11.51;100.00
53262;BME280;39658;51.090;-1.786;2022-11-06T07:44:03;99702.44;;;11.59;100.00
53262;BME280;39658;51.090;-1.786;2022-11-06T07:46:30;99705.41;;;11.64;100.00
53262;BME280;39658;51.090;-1.786;2022-11-06T07:48:56;99700.69;;;11.66;100.00
53262;BME280;39658;51.090;-1.786;2022-11-06T07:51:23;99714.94;;;11.73;100.00
53262;BME280;39658;51.090;-1.786;2022-11-06T07:53:51;99726.88;;;11.77;100.00
53262;BME280;39658;51.090;-1.786;2022-11-06T07:56:18;99722.56;;;11.76;100.00
53262;BME280;39658;51.090;-1.786;2022-11-06T07:58:45;99711.34;;;11.81;100.00
53262;BME280;39658;51.090;-1.786;2022-11-06T08:01:14;99714.47;;;11.84;100.00
53262;BME280;39658;51.090;-1.786;2022-11-06T08:03:41;99723.94;;;11.87;100.00
53262;BME280;39658;51.090;-1.786;2022-11-06T08:06:08;99728.44;;;11.86;100.00
53262;BME280;39658;51.090;-1.786;2022-11-06T08:08:34;99716.19;;;11.92;100.00
53262;BME280;39658;51.090;-1.786;2022-11-06T08:11:04;99715.81;;;11.95;100.00
53262;BME280;39658;51.090;-1.786;2022-11-06T08:13:31;99715.25;;;12.00;100.00
53262;BME280;39658;51.090;-1.786;2022-11-06T08:16:02;99695.13;;;11.97;100.00
53262;BME280;39658;51.090;-1.786;2022-11-06T08:18:29;99694.31;;;11.97;100.00
53262;BME280;39658;51.090;-1.786;2022-11-06T08:20:56;99716.47;;;11.97;100.00
53262;BME280;39658;51.090;-1.786;2022-11-06T08:23:23;99706.16;;;11.94;100.00
53262;BME280;39658;51.090;-1.786;2022-11-06T08:25:53;99703.75;;;11.99;100.00
53262;BME280;39658;51.090;-1.786;2022-11-06T08:28:22;99706.09;;;12.02;100.00
53262;BME280;39658;51.090;-1.786;2022-11-06T08:30:49;99693.38;;;12.04;100.00
53262;BME280;39658;51.090;-1.786;2022-11-06T08:33:17;99704.69;;;12.06;100.00
53262;BME280;39658;51.090;-1.786;2022-11-06T08:35:44;99704.56;;;12.14;100.00
53262;BME280;39658;51.090;-1.786;2022-11-06T08:38:11;99690.22;;;12.15;100.00
53262;BME280;39658;51.090;-1.786;2022-11-06T08:40:38;99699.22;;;12.14;100.00
53262;BME280;39658;51.090;-1.786;2022-11-06T08:43:07;99709.06;;;12.14;100.00
53262;BME280;39658;51.090;-1.786;2022-11-06T08:45:36;99714.47;;;12.20;100.00
53262;BME280;39658;51.090;-1.786;2022-11-06T08:48:04;99702.78;;;12.21;100.00
53262;BME280;39658;51.090;-1.786;2022-11-06T08:50:32;99699.28;;;12.21;100.00
53262;BME280;39658;51.090;-1.786;2022-11-06T08:52:59;99699.47;;;12.19;100.00
53262;BME280;39658;51.090;-1.786;2022-11-06T08:55:28;99715.75;;;12.24;100.00
53262;BME280;39658;51.090;-1.786;2022-11-06T08:57:55;99706.09;;;12.23;100.00
53262;BME280;39658;51.090;-1.786;2022-11-06T09:00:22;99718.66;;;12.30;100.00
53262;BME280;39658;51.090;-1.786;2022-11-06T09:02:56;99716.44;;;12.33;100.00
53262;BME280;39658;51.090;-1.786;2022-11-06T09:05:23;99716.63;;;12.32;100.00
53262;BME280;39658;51.090;-1.786;2022-11-06T09:07:49;99716.00;;;12.30;100.00
53262;BME280;39658;51.090;-1.786;2022-11-06T09:10:16;99691.34;;;12.28;100.00
53262;BME280;39658;51.090;-1.786;2022-11-06T09:12:43;99680.50;;;12.29;100.00
53262;BME280;39658;51.090;-1.786;2022-11-06T09:15:10;99677.81;;;12.29;100.00
53262;BME280;39658;51.090;-1.786;2022-11-06T09:17:41;99669.75;;;12.22;100.00
53262;BME280;39658;51.090;-1.786;2022-11-06T09:20:10;99679.28;;;12.32;100.00
53262;BME280;39658;51.090;-1.786;2022-11-06T09:22:38;99675.59;;;12.33;100.00
53262;BME280;39658;51.090;-1.786;2022-11-06T09:25:06;99670.25;;;12.33;100.00
53262;BME280;39658;51.090;-1.786;2022-11-06T09:27:40;99672.28;;;12.31;100.00
53262;BME280;39658;51.090;-1.786;2022-11-06T09:30:08;99667.53;;;12.26;100.00
53262;BME280;39658;51.090;-1.786;2022-11-06T09:32:35;99654.81;;;12.28;100.00
53262;BME280;39658;51.090;-1.786;2022-11-06T09:35:03;99655.06;;;12.33;100.00
53262;BME280;39658;51.090;-1.786;2022-11-06T09:37:31;99640.91;;;12.33;100.00
53262;BME280;39658;51.090;-1.786;2022-11-06T09:39:58;99645.22;;;12.34;100.00
53262;BME280;39658;51.090;-1.786;2022-11-06T09:42:33;99653.03;;;12.35;100.00
53262;BME280;39658;51.090;-1.786;2022-11-06T09:45:11;99654.31;;;12.39;100.00
53262;BME280;39658;51.090;-1.786;2022-11-06T09:47:42;99635.38;;;12.34;100.00
53262;BME280;39658;51.090;-1.786;2022-11-06T09:50:14;99627.00;;;12.37;100.00
53262;BME280;39658;51.090;-1.786;2022-11-06T09:52:47;99637.47;;;12.39;100.00
53262;BME280;39658;51.090;-1.786;2022-11-06T09:55:19;99635.28;;;12.42;100.00
53262;BME280;39658;51.090;-1.786;2022-11-06T09:57:50;99636.09;;;12.43;100.00
53262;BME280;39658;51.090;-1.786;2022-11-06T10:00:18;99629.00;;;12.57;100.00
53262;BME280;39658;51.090;-1.786;2022-11-06T10:02:47;99636.81;;;12.58;100.00
53262;BME280;39658;51.090;-1.786;2022-11-06T10:05:22;99629.91;;;12.70;100.00
53262;BME280;39658;51.090;-1.786;2022-11-06T10:07:53;99626.22;;;12.71;100.00
53262;BME280;39658;51.090;-1.786;2022-11-06T10:10:25;99627.88;;;12.72;100.00
53262;BME280;39658;51.090;-1.786;2022-11-06T10:15:46;99604.22;;;12.63;100.00
53262;BME280;39658;51.090;-1.786;2022-11-06T10:18:19;99596.44;;;12.68;100.00
53262;BME280;39658;51.090;-1.786;2022-11-06T10:20:52;99612.44;;;12.68;100.00
53262;BME280;39658;51.090;-1.786;2022-11-06T10:23:25;99610.59;;;12.68;100.00
53262;BME280;39658;51.090;-1.786;2022-11-06T10:26:04;99608.13;;;12.67;100.00
53262;BME280;39658;51.090;-1.786;2022-11-06T10:29:03;99605.06;;;12.70;100.00
53262;BME280;39658;51.090;-1.786;2022-11-06T10:31:39;99609.75;;;12.61;100.00
53262;BME280;39658;51.090;-1.786;2022-11-06T10:34:13;99610.72;;;12.53;100.00
53262;BME280;39658;51.090;-1.786;2022-11-06T10:36:44;99607.22;;;12.53;100.00
53262;BME280;39658;51.090;-1.786;2022-11-06T10:39:18;99587.53;;;12.54;100.00
53262;BME280;39658;51.090;-1.786;2022-11-06T10:41:50;99594.22;;;12.43;100.00
53262;BME280;39658;51.090;-1.786;2022-11-06T10:44:21;99585.75;;;12.40;100.00
53262;BME280;39658;51.090;-1.786;2022-11-06T10:46:53;99570.34;;;12.35;100.00
53262;BME280;39658;51.090;-1.786;2022-11-06T10:49:28;99562.78;;;12.39;100.00
53262;BME280;39658;51.090;-1.786;2022-11-06T10:52:10;99571.53;;;12.54;100.00
53262;BME280;39658;51.090;-1.786;2022-11-06T10:54:50;99566.44;;;12.66;100.00
53262;BME280;39658;51.090;-1.786;2022-11-06T10:57:26;99563.13;;;12.92;100.00
53262;BME280;39658;51.090;-1.786;2022-11-06T10:59:54;99551.25;;;13.07;100.00
53262;BME280;39658;51.090;-1.786;2022-11-06T11:02:25;99547.78;;;13.07;100.00
53262;BME280;39658;51.090;-1.786;2022-11-06T11:04:53;99540.50;;;13.29;100.00
53262;BME280;39658;51.090;-1.786;2022-11-06T11:07:21;99542.06;;;14.17;100.00
53262;BME280;39658;51.090;-1.786;2022-11-06T11:09:49;99532.59;;;13.88;100.00
53262;BME280;39658;51.090;-1.786;2022-11-06T11:12:21;99534.03;;;13.77;100.00
53262;BME280;39658;51.090;-1.786;2022-11-06T11:15:19;99527.84;;;14.30;99.66
53262;BME280;39658;51.090;-1.786;2022-11-06T11:18:11;99525.16;;;14.56;96.83
53262;BME280;39658;51.090;-1.786;2022-11-06T11:20:43;99516.44;;;14.87;97.48
53262;BME280;39658;51.090;-1.786;2022-11-06T11:23:14;99516.09;;;14.64;95.18
53262;BME280;39658;51.090;-1.786;2022-11-06T11:25:44;99499.03;;;14.32;98.54
53262;BME280;39658;51.090;-1.786;2022-11-06T11:28:27;99489.59;;;14.09;99.01
53262;BME280;39658;51.090;-1.786;2022-11-06T11:31:06;99486.09;;;13.76;100.00
53262;BME280;39658;51.090;-1.786;2022-11-06T11:33:34;99480.09;;;13.54;100.00
53262;BME280;39658;51.090;-1.786;2022-11-06T11:36:02;99472.69;;;13.36;100.00
53262;BME280;39658;51.090;-1.786;2022-11-06T11:38:31;99470.38;;;13.20;100.00
53262;BME280;39658;51.090;-1.786;2022-11-06T11:41:06;99470.22;;;12.80;100.00
53262;BME280;39658;51.090;-1.786;2022-11-06T11:43:34;99460.69;;;12.58;100.00
53262;BME280;39658;51.090;-1.786;2022-11-06T11:46:03;99455.13;;;12.53;100.00
53262;BME280;39658;51.090;-1.786;2022-11-06T11:48:48;99444.72;;;12.71;100.00
53262;BME280;39658;51.090;-1.786;2022-11-06T11:51:24;99452.56;;;12.79;100.00
53262;BME280;39658;51.090;-1.786;2022-11-06T11:53:55;99452.94;;;13.24;100.00
53262;BME280;39658;51.090;-1.786;2022-11-06T11:56:24;99454.63;;;13.45;100.00
53262;BME280;39658;51.090;-1.786;2022-11-06T11:58:54;99459.94;;;13.38;100.00
53262;BME280;39658;51.090;-1.786;2022-11-06T12:01:33;99454.81;;;13.43;100.00
53262;BME280;39658;51.090;-1.786;2022-11-06T12:04:08;99462.38;;;13.20;100.00
53262;BME280;39658;51.090;-1.786;2022-11-06T12:06:48;99469.25;;;12.88;100.00
53262;BME280;39658;51.090;-1.786;2022-11-06T12:09:16;99476.25;;;12.48;100.00
53262;BME280;39658;51.090;-1.786;2022-11-06T12:11:45;99508.47;;;12.18;100.00
53262;BME280;39658;51.090;-1.786;2022-11-06T12:14:16;99513.28;;;11.80;100.00
53262;BME280;39658;51.090;-1.786;2022-11-06T12:16:45;99498.75;;;11.61;100.00
53262;BME280;39658;51.090;-1.786;2022-11-06T12:19:14;99498.41;;;11.50;100.00
53262;BME280;39658;51.090;-1.786;2022-11-06T12:21:43;99496.38;;;11.52;100.00
53262;BME280;39658;51.090;-1.786;2022-11-06T12:24:14;99493.28;;;11.48;100.00
53262;BME280;39658;51.090;-1.786;2022-11-06T12:26:47;99499.19;;;11.44;100.00
53262;BME280;39658;51.090;-1.786;2022-11-06T12:29:19;99493.25;;;11.06;100.00
53262;BME280;39658;51.090;-1.786;2022-11-06T12:31:51;99477.31;;;10.91;100.00
53262;BME280;39658;51.090;-1.786;2022-11-06T12:34:23;99450.69;;;10.91;100.00
53262;BME280;39658;51.090;-1.786;2022-11-06T12:37:07;99389.41;;;10.84;100.00
53262;BME280;39658;51.090;-1.786;2022-11-06T12:39:38;99438.16;;;10.85;100.00
53262;BME280;39658;51.090;-1.786;2022-11-06T12:42:11;99427.50;;;11.06;100.00
53262;BME280;39658;51.090;-1.786;2022-11-06T12:44:38;99416.47;;;11.09;100.00
53262;BME280;39658;51.090;-1.786;2022-11-06T12:47:11;99410.59;;;11.14;100.00
53262;BME280;39658;51.090;-1.786;2022-11-06T12:49:59;99410.91;;;11.25;100.00
53262;BME280;39658;51.090;-1.786;2022-11-06T12:52:42;99424.25;;;11.53;100.00
53262;BME280;39658;51.090;-1.786;2022-11-06T12:55:17;99436.25;;;11.64;100.00
53262;BME280;39658;51.090;-1.786;2022-11-06T12:58:09;99445.53;;;11.68;100.00
53262;BME280;39658;51.090;-1.786;2022-11-06T13:00:51;99440.81;;;11.70;100.00